PDT,Max TemperatureF,Mean TemperatureF,Min TemperatureF,Max Dew PointF,MeanDew PointF,Min DewpointF,Max Humidity, Mean Humidity, Min Humidity, Max Sea Level PressureIn, Mean Sea Level PressureIn, Min Sea Level PressureIn, Max VisibilityMiles, Mean VisibilityMiles, Min VisibilityMiles, Max Wind SpeedMPH, Mean Wind SpeedMPH, Max Gust SpeedMPH,PrecipitationIn, CloudCover, Events, WindDirDegrees
2013-3-1,68,50,31,31,28,26,78,50,22,30.51,30.40,30.29,10,10,10,13,2,15,0.00,1,,127
2013-3-2,66,51,36,29,26,22,64,42,20,30.31,30.17,30.02,10,10,10,18,3,26,0.00,7,,267
2013-3-3,53,48,43,41,38,32,89,62,35,30.07,30.01,29.98,10,10,8,20,4,24,0.11,8,Rain,345
2013-3-4,60,47,33,36,33,24,89,58,26,30.11,30.03,29.95,10,10,10,14,2,16,0.00,2,,268
2013-3-5,62,47,31,31,26,22,85,54,22,29.98,29.82,29.61,10,10,10,40,12,48,0.00,3,,187
2013-3-6,49,41,33,34,25,15,89,59,28,29.95,29.81,29.60,10,7,0,45,17,55,0.02,6,Rain-Snow,251
2013-3-7,47,39,30,28,23,19,69,53,37,29.95,29.89,29.83,10,10,9,9,3,15,T,7,Snow,203
2013-3-8,48,40,32,27,24,19,75,53,31,29.96,29.85,29.79,10,10,10,10,2,15,0.00,7,,320
2013-3-9,55,44,32,26,15,4,59,37,14,30.40,30.22,29.98,10,10,10,16,5,21,0.00,2,,9
2013-3-10,61,43,25,16,12,6,57,35,12,30.48,30.38,30.29,10,10,10,10,2,13,0.00,3,,11
2013-3-11,67,49,30,21,16,10,58,35,12,30.34,30.24,30.13,10,10,10,10,2,13,0.00,4,,332
2013-3-12,72,52,32,26,21,13,61,36,11,30.24,30.16,30.09,10,10,10,8,1,18,0.00,4,,242
2013-3-13,77,58,38,29,25,16,64,37,9,30.24,30.16,30.07,10,10,10,15,2,21,0.00,4,,329
2013-3-14,75,60,44,30,28,25,53,35,16,30.17,30.13,30.06,10,10,10,16,2,22,0.00,6,,263
2013-3-15,73,55,36,29,24,13,64,37,10,30.14,30.06,29.97,10,10,10,17,5,26,0.00,5,,289
2013-3-16,70,54,37,29,23,13,59,35,11,30.06,29.99,29.87,10,10,10,25,8,35,0.00,3,,281
2013-3-17,66,54,41,22,17,10,45,29,12,30.04,29.98,29.92,10,10,10,24,7,32,0.00,2,,337
2013-3-18,66,49,32,23,20,13,59,36,13,30.10,30.03,29.94,10,10,10,18,6,23,0.00,5,,272
2013-3-19,64,55,46,35,31,21,53,40,26,30.09,30.01,29.95,10,10,10,21,6,28,0.00,7,,308
2013-3-20,63,55,47,34,32,29,56,44,32,29.97,29.89,29.83,10,10,10,37,13,49,0.00,4,,240
2013-3-21,59,49,38,29,22,8,64,42,19,30.06,29.98,29.90,10,10,10,22,9,32,0.00,2,,16
2013-3-22,54,41,27,13,8,-4,50,30,9,30.16,30.07,29.98,10,10,10,22,7,25,0.00,0,,8
2013-3-23,57,41,24,13,9,8,50,33,15,30.25,30.13,30.01,10,10,10,13,3,15,0.00,1,,42
2013-3-24,66,48,29,28,19,14,56,37,18,30.14,30.03,29.91,10,10,10,17,3,29,0.00,4,,309
2013-3-25,70,52,34,25,19,4,61,35,8,30.00,29.90,29.81,10,10,10,25,5,33,0.00,5,,288
2013-3-26,63,53,43,32,28,19,58,43,27,29.90,29.84,29.81,10,10,10,24,9,39,0.00,5,,323
2013-3-27,66,51,35,35,31,28,75,51,26,29.95,29.90,29.83,10,10,10,24,6,30,0.00,4,,312
2013-3-28,64,53,42,39,34,28,76,51,26,30.12,29.99,29.92,10,10,10,25,6,30,T,6,Rain,251
2013-3-29,72,54,36,36,31,23,85,51,17,30.20,30.11,30.02,10,10,10,18,4,23,0.00,3,,262
2013-3-30,73,56,39,37,31,25,62,40,17,30.12,30.01,29.88,10,10,10,22,5,25,T,6,,240
2013-3-31,58,49,40,41,35,29,83,58,33,30.04,29.94,29.84,10,10,8,23,8,29,0.16,6,Rain-Thunderstorm,315